Time;durP1;ratioP1;P1;durP2;ratioP2;P2;SDS_P1;SDS_P2;PMS_P1;PMS_P2;Temp;Humidity;BMP_temperature;BMP_pressure;BME280_temperature;BME280_humidity;BME280_pressure;Samples;Min_cycle;Max_cycle;Signal;HPM_P1;HPM_P2
2022/07/25 00:00:58;;;;;;;13.80;12.70;;;22.40;99.90;;;;;;5008802;28;20434;-58
2022/07/25 00:03:23;;;;;;;13.20;12.20;;;22.40;99.90;;;;;;5009438;28;20191;-58
2022/07/25 00:05:49;;;;;;;13.23;11.83;;;22.40;99.90;;;;;;5003398;28;20195;-59
2022/07/25 00:08:14;;;;;;;12.83;11.83;;;22.50;99.90;;;;;;5010693;28;20206;-58
2022/07/25 00:10:40;;;;;;;13.07;12.07;;;22.50;99.90;;;;;;5010352;28;20233;-58
2022/07/25 00:13:06;;;;;;;13.50;12.37;;;22.50;99.90;;;;;;5017317;28;20277;-58
2022/07/25 00:15:31;;;;;;;13.60;12.40;;;22.40;99.90;;;;;;5014520;28;20214;-59
2022/07/25 00:17:57;;;;;;;13.73;12.63;;;22.30;99.90;;;;;;5010397;28;20686;-59
2022/07/25 00:20:23;;;;;;;12.83;11.80;;;22.20;99.90;;;;;;5011841;28;20195;-58
2022/07/25 00:22:48;;;;;;;13.00;11.90;;;22.20;99.90;;;;;;5012739;28;20190;-60
2022/07/25 00:25:14;;;;;;;13.20;12.20;;;22.10;99.90;;;;;;5012603;28;20446;-58
2022/07/25 00:27:39;;;;;;;13.90;12.70;;;22.10;99.90;;;;;;5012551;28;20261;-62
2022/07/25 00:30:05;;;;;;;13.43;12.33;;;22.10;99.90;;;;;;5025529;28;20191;-58
2022/07/25 00:32:31;;;;;;;14.40;13.10;;;22.10;99.90;;;;;;5013061;28;20313;-58
2022/07/25 00:34:57;;;;;;;12.97;11.87;;;22.10;99.90;;;;;;5010829;28;21005;-58
2022/07/25 00:37:22;;;;;;;13.30;12.10;;;22.00;99.90;;;;;;5011992;28;20218;-60
2022/07/25 00:39:48;;;;;;;13.27;12.07;;;22.00;99.90;;;;;;5011664;28;20191;-57
2022/07/25 00:42:13;;;;;;;13.30;11.97;;;22.00;99.90;;;;;;5011693;28;20682;-57
2022/07/25 00:44:39;;;;;;;13.53;12.33;;;22.00;99.90;;;;;;5011820;28;20226;-58
2022/07/25 00:47:05;;;;;;;13.17;11.97;;;22.00;99.90;;;;;;5012550;28;20321;-59
2022/07/25 00:49:30;;;;;;;12.90;11.70;;;22.00;99.90;;;;;;5013911;28;20239;-57
2022/07/25 00:51:56;;;;;;;12.70;11.70;;;22.00;99.90;;;;;;5011844;28;20191;-58
2022/07/25 00:54:22;;;;;;;12.93;11.80;;;22.10;99.90;;;;;;5012334;28;20179;-57
2022/07/25 00:56:49;;;;;;;12.83;11.63;;;22.10;99.90;;;;;;5010246;28;20472;-59
2022/07/25 00:59:15;;;;;;;13.27;12.13;;;22.10;99.90;;;;;;5010734;28;20652;-59
2022/07/25 01:01:44;;;;;;;13.60;12.50;;;22.00;99.90;;;;;;5010987;28;20433;-57
2022/07/25 01:04:10;;;;;;;13.27;12.07;;;22.00;99.90;;;;;;5013165;28;20483;-58
2022/07/25 01:06:36;;;;;;;13.10;12.00;;;22.10;99.90;;;;;;5005335;28;20293;-58
2022/07/25 01:09:02;;;;;;;12.40;11.40;;;22.00;99.90;;;;;;5017506;28;20517;-58
2022/07/25 01:11:27;;;;;;;13.60;12.40;;;22.00;99.90;;;;;;5011729;28;20179;-58
2022/07/25 01:13:53;;;;;;;12.57;11.50;;;22.00;99.90;;;;;;5011275;28;20430;-58
2022/07/25 01:16:18;;;;;;;13.50;12.40;;;22.00;99.90;;;;;;5011544;28;20206;-60
2022/07/25 01:18:44;;;;;;;12.90;11.70;;;22.00;99.90;;;;;;5009314;28;20205;-58
2022/07/25 01:21:10;;;;;;;13.60;12.50;;;21.90;99.90;;;;;;5025987;28;20544;-58
2022/07/25 01:23:35;;;;;;;12.63;11.57;;;21.90;99.90;;;;;;5012252;28;20301;-58
2022/07/25 01:26:01;;;;;;;14.80;13.30;;;21.90;99.90;;;;;;5006761;28;20199;-61
2022/07/25 01:28:27;;;;;;;12.30;11.30;;;21.90;99.90;;;;;;5011213;28;20222;-58
2022/07/25 01:30:53;;;;;;;13.17;11.97;;;21.90;99.90;;;;;;5010362;28;20341;-58
2022/07/25 01:33:20;;;;;;;13.33;12.13;;;21.80;99.90;;;;;;5012153;28;21284;-58
2022/07/25 01:35:47;;;;;;;12.68;11.68;;;21.80;99.90;;;;;;5011225;28;20282;-57
2022/07/25 01:38:13;;;;;;;13.60;12.40;;;21.90;99.90;;;;;;5012192;28;20557;-58
2022/07/25 01:40:39;;;;;;;13.77;12.67;;;21.90;99.90;;;;;;5009779;28;20272;-59
2022/07/25 01:43:06;;;;;;;13.60;12.40;;;21.90;99.90;;;;;;5010987;28;20442;-58
2022/07/25 01:45:31;;;;;;;13.98;12.70;;;21.80;99.90;;;;;;5011814;28;20198;-57
2022/07/25 01:47:57;;;;;;;13.33;12.23;;;21.80;99.90;;;;;;5011251;28;20223;-58
2022/07/25 01:50:23;;;;;;;14.63;13.07;;;21.80;99.90;;;;;;5010679;28;20179;-58
2022/07/25 01:52:49;;;;;;;14.00;12.87;;;21.80;99.90;;;;;;5009941;28;20250;-57
2022/07/25 01:55:14;;;;;;;13.77;12.37;;;21.70;99.90;;;;;;5012806;28;20449;-59
2022/07/25 01:57:40;;;;;;;13.80;12.60;;;21.70;99.90;;;;;;5012827;28;20267;-60
2022/07/25 02:00:08;;;;;;;13.93;12.60;;;21.70;99.90;;;;;;5009481;28;20241;-59
2022/07/25 02:02:34;;;;;;;14.20;12.90;;;21.80;99.90;;;;;;5010183;28;20182;-58
2022/07/25 02:04:59;;;;;;;13.87;12.50;;;21.70;99.90;;;;;;5009875;28;20492;-58
2022/07/25 02:07:25;;;;;;;13.47;12.37;;;21.60;99.90;;;;;;5005780;28;20241;-59
2022/07/25 02:09:51;;;;;;;13.77;12.67;;;21.60;99.90;;;;;;5011189;28;20179;-57
2022/07/25 02:12:16;;;;;;;13.53;12.30;;;21.60;99.90;;;;;;5011410;28;20189;-59
2022/07/25 02:14:42;;;;;;;13.07;11.83;;;21.50;99.90;;;;;;5008253;28;20257;-57
2022/07/25 02:17:07;;;;;;;12.97;11.87;;;21.50;99.90;;;;;;5010160;28;20207;-56
2022/07/25 02:19:33;;;;;;;13.27;12.07;;;21.50;99.90;;;;;;5009722;28;20183;-58
2022/07/25 02:21:59;;;;;;;13.20;12.10;;;21.50;99.90;;;;;;5009051;28;20182;-57
2022/07/25 02:24:25;;;;;;;13.37;12.07;;;21.50;99.90;;;;;;5010856;28;20302;-56
2022/07/25 02:26:50;;;;;;;13.87;12.60;;;21.50;99.90;;;;;;5010607;28;20269;-55
2022/07/25 02:29:16;;;;;;;13.27;12.07;;;21.40;99.90;;;;;;5011848;28;20186;-57
2022/07/25 02:31:41;;;;;;;12.30;11.20;;;21.40;99.90;;;;;;5009848;28;20971;-57
2022/07/25 02:34:07;;;;;;;13.27;12.07;;;21.40;99.90;;;;;;5010923;28;20175;-56
2022/07/25 02:36:32;;;;;;;13.47;12.30;;;21.40;99.90;;;;;;5009136;28;20695;-58
2022/07/25 02:38:58;;;;;;;13.50;12.30;;;21.40;99.90;;;;;;5005846;28;20178;-57
2022/07/25 02:41:24;;;;;;;13.03;11.93;;;21.40;99.90;;;;;;5009122;28;20182;-57
2022/07/25 02:43:49;;;;;;;12.70;11.60;;;21.40;99.90;;;;;;5010884;28;20236;-56
2022/07/25 02:46:15;;;;;;;12.70;11.50;;;21.30;99.90;;;;;;5009815;28;20293;-59
2022/07/25 02:48:40;;;;;;;11.93;10.93;;;21.30;99.90;;;;;;5010747;28;20214;-57
2022/07/25 02:51:06;;;;;;;13.10;11.90;;;21.30;99.90;;;;;;5009450;28;21012;-57
2022/07/25 02:53:31;;;;;;;12.40;11.40;;;21.40;99.90;;;;;;5010700;28;20183;-57
2022/07/25 02:55:57;;;;;;;12.37;11.30;;;21.30;99.90;;;;;;5009487;28;20183;-57
2022/07/25 02:58:23;;;;;;;12.93;11.63;;;21.30;99.90;;;;;;5009363;28;20193;-56
2022/07/25 03:00:48;;;;;;;12.80;11.80;;;21.30;99.90;;;;;;5008085;28;20694;-56
2022/07/25 03:03:14;;;;;;;12.83;11.77;;;21.30;99.90;;;;;;5011184;28;20298;-58
2022/07/25 03:05:39;;;;;;;12.47;11.33;;;21.20;99.90;;;;;;5006254;28;20329;-57
2022/07/25 03:08:05;;;;;;;12.97;11.87;;;21.20;99.90;;;;;;5007861;28;20305;-57
2022/07/25 03:10:30;;;;;;;12.53;11.50;;;21.10;99.90;;;;;;5009344;28;20602;-57
2022/07/25 03:12:56;;;;;;;12.43;11.40;;;21.00;99.90;;;;;;5010445;28;20652;-57
2022/07/25 03:15:22;;;;;;;11.87;10.77;;;21.10;99.90;;;;;;5009044;28;20195;-56
2022/07/25 03:17:47;;;;;;;12.03;10.93;;;21.10;99.90;;;;;;5009254;28;20290;-56
2022/07/25 03:20:13;;;;;;;11.40;10.40;;;21.10;99.90;;;;;;5007955;28;20242;-56
2022/07/25 03:22:39;;;;;;;11.87;10.73;;;21.10;99.90;;;;;;5009912;28;20190;-57
2022/07/25 03:25:05;;;;;;;16.20;14.80;;;21.20;99.90;;;;;;5009781;28;20187;-58
2022/07/25 03:27:30;;;;;;;11.90;10.90;;;21.10;99.90;;;;;;5009649;28;20820;-56
2022/07/25 03:29:57;;;;;;;11.27;10.37;;;21.10;99.90;;;;;;5009436;28;20437;-58
2022/07/25 03:32:22;;;;;;;11.77;10.80;;;21.10;99.90;;;;;;5010579;28;20186;-57
2022/07/25 03:34:48;;;;;;;11.13;10.13;;;21.10;99.90;;;;;;5011417;28;20187;-55
2022/07/25 03:37:14;;;;;;;12.23;11.23;;;21.20;99.90;;;;;;5011419;28;20230;-57
2022/07/25 03:39:39;;;;;;;12.07;10.87;;;21.10;99.90;;;;;;5008819;28;20259;-56
2022/07/25 03:42:05;;;;;;;12.40;11.20;;;21.10;99.90;;;;;;5009887;28;20281;-57
2022/07/25 03:44:31;;;;;;;12.20;11.07;;;21.10;99.90;;;;;;5013110;28;20651;-57
2022/07/25 03:46:56;;;;;;;13.60;11.93;;;21.00;99.90;;;;;;5013549;28;20301;-56
2022/07/25 03:49:22;;;;;;;13.30;12.10;;;21.00;99.90;;;;;;5013738;28;20187;-57
2022/07/25 03:51:47;;;;;;;11.83;10.73;;;20.90;99.90;;;;;;5012953;28;20572;-57
2022/07/25 03:54:13;;;;;;;12.57;11.50;;;21.00;99.90;;;;;;5013773;28;20217;-57
2022/07/25 03:56:46;;;;;;;12.83;11.50;;;20.90;99.90;;;;;;5011142;28;20203;-57
2022/07/25 03:59:14;;;;;;;11.40;10.50;;;20.90;99.90;;;;;;5011840;28;20570;-56
2022/07/25 04:01:40;;;;;;;12.02;11.02;;;20.90;99.90;;;;;;5012158;28;20264;-58
2022/07/25 04:04:06;;;;;;;12.25;11.05;;;20.90;99.90;;;;;;5013360;28;20195;-57
2022/07/25 04:06:32;;;;;;;12.60;11.60;;;20.90;99.90;;;;;;5007163;28;20217;-60
2022/07/25 04:08:58;;;;;;;12.35;11.35;;;20.90;99.90;;;;;;5013402;28;20451;-59
2022/07/25 04:11:24;;;;;;;12.23;11.00;;;20.90;99.90;;;;;;5013486;28;20194;-57
2022/07/25 04:13:50;;;;;;;12.70;11.50;;;21.00;99.90;;;;;;5012448;28;20483;-57
2022/07/25 04:16:17;;;;;;;11.45;10.50;;;21.00;99.90;;;;;;5010767;28;20648;-57
2022/07/25 04:18:43;;;;;;;13.02;11.88;;;21.00;99.90;;;;;;5011838;28;20187;-57
2022/07/25 04:21:09;;;;;;;11.97;10.97;;;21.00;99.90;;;;;;5007745;28;20282;-58
2022/07/25 04:23:35;;;;;;;12.18;11.13;;;21.00;99.90;;;;;;5012631;28;20500;-59
2022/07/25 04:26:01;;;;;;;10.73;9.82;;;20.90;99.90;;;;;;5012180;28;20187;-58
2022/07/25 04:28:28;;;;;;;12.70;11.50;;;21.00;99.90;;;;;;5010294;28;20216;-59
2022/07/25 04:30:54;;;;;;;13.45;12.35;;;21.10;99.90;;;;;;5011925;28;20215;-60
2022/07/25 04:33:20;;;;;;;11.77;10.10;;;21.10;99.90;;;;;;5010613;28;20241;-58
2022/07/25 04:35:46;;;;;;;13.15;11.95;;;21.10;99.90;;;;;;5008917;28;20199;-59
2022/07/25 04:38:11;;;;;;;11.68;10.48;;;21.20;99.90;;;;;;5012372;28;20609;-58
2022/07/25 04:40:37;;;;;;;12.33;10.80;;;21.20;99.90;;;;;;5010815;28;20186;-59
2022/07/25 04:43:03;;;;;;;12.27;11.23;;;21.30;99.90;;;;;;5010794;28;20690;-59
2022/07/25 04:45:31;;;;;;;11.63;10.63;;;21.30;99.90;;;;;;5013526;28;20192;-59
2022/07/25 04:47:56;;;;;;;12.68;11.48;;;21.40;99.90;;;;;;5010460;28;20594;-59
2022/07/25 04:50:22;;;;;;;12.57;11.30;;;21.40;99.90;;;;;;5011307;28;20194;-59
2022/07/25 04:52:47;;;;;;;11.67;10.53;;;21.50;99.90;;;;;;5012291;28;20190;-61
2022/07/25 04:55:13;;;;;;;12.47;11.30;;;21.50;99.90;;;;;;5009898;28;20260;-58
2022/07/25 04:57:39;;;;;;;12.70;11.60;;;21.50;99.90;;;;;;5016037;28;20262;-59
2022/07/25 05:00:07;;;;;;;12.35;11.15;;;21.60;99.90;;;;;;5010573;28;20191;-59
2022/07/25 05:02:33;;;;;;;12.17;11.07;;;21.60;99.90;;;;;;5012211;28;20191;-59
2022/07/25 05:04:59;;;;;;;12.27;11.30;;;21.70;99.90;;;;;;5010597;28;20469;-61
2022/07/25 05:07:25;;;;;;;12.32;11.30;;;21.80;99.90;;;;;;5008822;28;20474;-59
2022/07/25 05:09:51;;;;;;;12.10;11.00;;;21.80;99.90;;;;;;5011999;28;20183;-59
2022/07/25 05:12:16;;;;;;;13.60;12.50;;;21.90;99.90;;;;;;5011173;28;20178;-59
2022/07/25 05:14:42;;;;;;;11.97;10.73;;;22.00;99.90;;;;;;5005696;28;20453;-60
2022/07/25 05:17:08;;;;;;;11.97;11.00;;;22.10;99.90;;;;;;5010447;28;20559;-59
2022/07/25 05:19:33;;;;;;;13.00;11.67;;;22.20;99.90;;;;;;5008792;28;20278;-60
2022/07/25 05:21:59;;;;;;;12.70;11.50;;;22.30;99.90;;;;;;5010354;28;20213;-60
2022/07/25 05:24:25;;;;;;;13.50;12.10;;;22.10;99.90;;;;;;5011229;28;20348;-60
2022/07/25 05:26:51;;;;;;;11.90;11.00;;;22.40;99.90;;;;;;5010558;28;20199;-61
2022/07/25 05:29:16;;;;;;;11.60;10.70;;;22.60;99.90;;;;;;5009289;28;20175;-60
2022/07/25 05:31:42;;;;;;;11.70;10.70;;;22.70;99.90;;;;;;5010135;28;20178;-60
2022/07/25 05:34:07;;;;;;;14.17;12.97;;;22.90;99.90;;;;;;5011012;28;20241;-61
2022/07/25 05:36:33;;;;;;;13.47;12.10;;;23.00;99.90;;;;;;5009329;28;20207;-60
2022/07/25 05:38:59;;;;;;;12.10;11.13;;;23.00;99.90;;;;;;5009824;28;20195;-59
2022/07/25 05:41:25;;;;;;;13.67;12.40;;;23.20;99.90;;;;;;5010547;28;20195;-59
2022/07/25 05:43:51;;;;;;;14.40;13.00;;;23.30;99.90;;;;;;5010444;28;20977;-59
2022/07/25 05:46:17;;;;;;;13.30;12.20;;;23.50;99.60;;;;;;5005847;28;20498;-61
2022/07/25 05:48:43;;;;;;;15.47;12.63;;;23.60;99.60;;;;;;5000772;28;20525;-61
2022/07/25 05:51:09;;;;;;;22.70;19.30;;;23.80;99.30;;;;;;5004380;28;21109;-61
2022/07/25 05:53:34;;;;;;;12.87;11.63;;;23.90;98.20;;;;;;5005786;28;20241;-61
2022/07/25 05:56:00;;;;;;;12.00;10.80;;;24.10;98.20;;;;;;5003932;28;20772;-62
2022/07/25 05:58:26;;;;;;;13.70;12.47;;;24.80;97.70;;;;;;5002918;28;20195;-61
2022/07/25 06:00:51;;;;;;;13.97;12.50;;;24.40;97.40;;;;;;5006102;28;20190;-61
2022/07/25 06:03:18;;;;;;;11.93;11.00;;;24.60;97.30;;;;;;5005550;28;20455;-67
2022/07/25 06:05:46;;;;;;;12.23;11.17;;;24.70;95.80;;;;;;5004184;28;20866;-71
2022/07/25 06:08:13;;;;;;;11.53;10.63;;;24.90;94.80;;;;;;5006212;28;20478;-70
2022/07/25 06:10:39;;;;;;;12.03;11.13;;;25.10;95.10;;;;;;5005639;28;20498;-68
2022/07/25 06:13:05;;;;;;;12.40;11.40;;;25.20;94.50;;;;;;5009912;28;20442;-69
2022/07/25 06:15:31;;;;;;;11.90;10.80;;;25.30;93.90;;;;;;5008137;28;20525;-66
2022/07/25 06:17:56;;;;;;;11.73;10.83;;;25.40;93.40;;;;;;5004145;28;20218;-70
2022/07/25 06:20:23;;;;;;;11.50;10.60;;;25.60;92.90;;;;;;5006814;28;20185;-70
2022/07/25 06:22:48;;;;;;;11.07;10.17;;;25.70;92.50;;;;;;5026139;28;20784;-72
2022/07/25 06:25:14;;;;;;;11.13;10.33;;;25.80;92.20;;;;;;5005868;28;20439;-59
2022/07/25 06:27:40;;;;;;;11.33;10.43;;;26.00;92.00;;;;;;5010120;28;20216;-68
2022/07/25 06:30:07;;;;;;;11.27;9.70;;;26.10;92.20;;;;;;5005806;28;20815;-66
2022/07/25 06:32:33;;;;;;;12.50;11.40;;;26.20;91.70;;;;;;5008234;28;20448;-73
2022/07/25 06:34:58;;;;;;;12.23;10.87;;;26.30;91.50;;;;;;5004769;28;20488;-62
2022/07/25 06:37:24;;;;;;;12.00;11.10;;;26.40;91.10;;;;;;5005418;28;20676;-61
2022/07/25 06:39:50;;;;;;;10.80;9.90;;;26.50;91.00;;;;;;5001574;28;20183;-61
2022/07/25 06:42:16;;;;;;;12.70;11.80;;;26.70;91.40;;;;;;5003980;28;20441;-60
2022/07/25 06:44:47;;;;;;;11.00;10.13;;;26.90;91.10;;;;;;5014280;28;20305;-60
2022/07/25 06:47:13;;;;;;;10.97;10.07;;;27.00;91.10;;;;;;5003496;28;20488;-63
2022/07/25 06:49:40;;;;;;;11.83;10.93;;;27.10;90.80;;;;;;5007511;28;21049;-62
2022/07/25 06:52:06;;;;;;;10.60;9.80;;;27.30;90.70;;;;;;5008079;28;20750;-61
2022/07/25 06:54:32;;;;;;;11.20;10.30;;;27.70;88.70;;;;;;5009879;28;20458;-62
2022/07/25 06:56:58;;;;;;;11.77;10.77;;;28.10;87.70;;;;;;5007463;28;20573;-65
2022/07/25 06:59:23;;;;;;;11.97;10.80;;;28.30;86.90;;;;;;5006778;28;20554;-61
2022/07/25 07:01:49;;;;;;;11.77;10.80;;;28.40;84.80;;;;;;5009666;28;20601;-61
2022/07/25 07:04:15;;;;;;;12.07;11.07;;;28.40;84.60;;;;;;5009283;28;20639;-61
2022/07/25 07:06:41;;;;;;;13.03;11.83;;;28.50;83.10;;;;;;5007213;28;20259;-62
2022/07/25 07:09:06;;;;;;;11.90;10.73;;;28.60;82.70;;;;;;5002593;28;20188;-63
2022/07/25 07:11:33;;;;;;;10.90;10.10;;;28.80;81.50;;;;;;4994118;28;20607;-62
2022/07/25 07:14:01;;;;;;;11.03;10.03;;;29.30;80.20;;;;;;5011268;28;20189;-62
2022/07/25 07:16:28;;;;;;;12.00;10.77;;;30.80;76.20;;;;;;5010464;28;20787;-64
2022/07/25 07:18:53;;;;;;;11.70;10.70;;;33.10;68.40;;;;;;5018917;28;21005;-63
2022/07/25 07:21:19;;;;;;;11.67;10.77;;;35.10;59.80;;;;;;5012291;28;20580;-64
2022/07/25 07:23:44;;;;;;;10.97;10.07;;;36.10;56.30;;;;;;5012993;28;20186;-63
2022/07/25 07:26:10;;;;;;;11.13;10.43;;;37.60;53.10;;;;;;5012849;28;20216;-63
2022/07/25 07:28:35;;;;;;;11.73;11.03;;;38.90;49.40;;;;;;5013233;28;20229;-64
2022/07/25 07:31:01;;;;;;;11.43;10.63;;;40.00;46.80;;;;;;5012153;28;20221;-63
2022/07/25 07:33:27;;;;;;;10.50;9.80;;;40.60;45.00;;;;;;5013410;28;20182;-63
2022/07/25 07:35:54;;;;;;;10.70;10.00;;;41.80;43.50;;;;;;5013126;28;20186;-64
2022/07/25 07:38:20;;;;;;;11.27;10.47;;;43.20;41.00;;;;;;5012321;28;20201;-65
2022/07/25 07:40:45;;;;;;;11.13;10.50;;;43.30;39.30;;;;;;5012715;28;20437;-65
2022/07/25 07:43:11;;;;;;;11.90;11.20;;;43.20;39.10;;;;;;5010708;28;20198;-64
2022/07/25 07:45:37;;;;;;;12.30;11.40;;;43.20;39.00;;;;;;5012453;28;20204;-65
2022/07/25 07:48:03;;;;;;;10.93;10.23;;;43.20;38.10;;;;;;5012414;28;20218;-63
2022/07/25 07:50:28;;;;;;;11.20;10.40;;;43.10;38.30;;;;;;5012457;28;20183;-64
2022/07/25 07:52:57;;;;;;;12.17;11.37;;;44.00;37.10;;;;;;5016039;28;20483;-64
2022/07/25 07:58:07;;;;;;;11.80;11.10;;;43.60;36.90;;;;;;5012542;28;20624;-63
2022/07/25 08:00:35;;;;;;;11.73;10.93;;;44.60;35.50;;;;;;5012475;28;21002;-64
2022/07/25 08:03:01;;;;;;;11.40;10.70;;;44.80;35.20;;;;;;5018708;28;20562;-64
2022/07/25 08:05:41;;;;;;;11.60;10.97;;;45.90;34.50;;;;;;5011869;28;20492;-65
2022/07/25 08:08:09;;;;;;;11.67;10.90;;;45.40;33.60;;;;;;5009034;28;20550;-64
2022/07/25 08:10:41;;;;;;;12.03;11.23;;;45.10;34.10;;;;;;5013715;28;20977;-64
2022/07/25 08:13:22;;;;;;;11.90;11.10;;;45.50;33.90;;;;;;5002900;28;20436;-64
2022/07/25 08:15:51;;;;;;;12.37;11.50;;;45.70;32.80;;;;;;5007911;28;20442;-68
2022/07/25 08:18:17;;;;;;;10.70;10.07;;;46.40;32.40;;;;;;5007390;28;20464;-67
2022/07/25 08:20:43;;;;;;;10.87;10.27;;;47.20;31.60;;;;;;5008302;28;20433;-67
2022/07/25 08:23:12;;;;;;;11.47;10.73;;;46.50;31.70;;;;;;5010238;28;20326;-66
2022/07/25 08:25:39;;;;;;;10.20;9.50;;;46.10;31.00;;;;;;5009438;28;20426;-71
2022/07/25 08:28:05;;;;;;;12.27;11.47;;;46.30;31.40;;;;;;5012821;28;20509;-68
2022/07/25 08:30:31;;;;;;;10.83;10.20;;;46.30;31.00;;;;;;5005865;28;20629;-68
2022/07/25 08:32:59;;;;;;;12.30;11.40;;;46.70;31.20;;;;;;5008923;28;20934;-67
2022/07/25 08:35:26;;;;;;;10.47;9.77;;;45.90;31.20;;;;;;5010055;28;20525;-70
2022/07/25 08:37:53;;;;;;;11.40;10.70;;;46.80;29.90;;;;;;5003757;28;20462;-69
2022/07/25 08:40:20;;;;;;;11.40;10.70;;;46.70;29.50;;;;;;5002006;28;20568;-70
2022/07/25 08:42:46;;;;;;;10.07;9.53;;;46.40;30.10;;;;;;5007152;28;20449;-70
2022/07/25 08:45:15;;;;;;;9.80;9.20;;;46.80;29.60;;;;;;5010138;28;20445;-68
2022/07/25 08:47:40;;;;;;;10.73;10.13;;;47.00;28.60;;;;;;5003553;28;20827;-67
2022/07/25 08:50:12;;;;;;;10.53;9.93;;;46.10;28.90;;;;;;5011600;28;20456;-68
2022/07/25 08:52:38;;;;;;;11.67;10.70;;;47.30;28.40;;;;;;5012087;28;20182;-67
2022/07/25 08:55:06;;;;;;;10.50;9.70;;;48.40;27.40;;;;;;5010507;28;20950;-67
2022/07/25 08:57:33;;;;;;;11.60;10.70;;;48.50;26.70;;;;;;5009198;28;20493;-71
2022/07/25 08:59:59;;;;;;;9.93;9.33;;;48.70;26.70;;;;;;5009577;28;20846;-60
2022/07/25 09:02:26;;;;;;;10.70;10.10;;;48.50;26.70;;;;;;5011838;28;20453;-64
2022/07/25 09:04:52;;;;;;;10.40;9.80;;;47.90;26.80;;;;;;5011229;28;20496;-63
2022/07/25 09:07:46;;;;;;;10.10;9.50;;;47.50;26.80;;;;;;5009834;28;20472;-63
2022/07/25 09:10:20;;;;;;;11.30;10.50;;;48.00;26.70;;;;;;5006241;28;20469;-64
2022/07/25 09:12:54;;;;;;;10.40;9.70;;;48.20;26.40;;;;;;4993822;28;20434;-64
2022/07/25 09:15:23;;;;;;;11.00;10.30;;;47.90;26.30;;;;;;4998564;28;20448;-68
2022/07/25 09:17:50;;;;;;;10.40;9.70;;;47.30;26.30;;;;;;5012728;28;20549;-69
2022/07/25 09:20:15;;;;;;;10.13;9.43;;;47.50;26.20;;;;;;5010116;28;20449;-69
2022/07/25 09:22:44;;;;;;;9.60;8.80;;;47.50;26.30;;;;;;5008309;28;20457;-69
2022/07/25 09:25:26;;;;;;;9.90;9.40;;;47.10;26.40;;;;;;5025388;28;20195;-69
2022/07/25 09:27:51;;;;;;;10.43;9.73;;;46.00;26.70;;;;;;5008969;28;20477;-66
2022/07/25 09:30:17;;;;;;;10.70;10.00;;;47.20;26.60;;;;;;5007169;28;20456;-67
2022/07/25 09:32:43;;;;;;;9.63;8.93;;;48.30;25.80;;;;;;5006608;28;20201;-68
2022/07/25 09:35:09;;;;;;;10.77;10.07;;;48.20;26.00;;;;;;5015882;28;20516;-67
2022/07/25 09:37:35;;;;;;;11.07;10.17;;;48.10;25.60;;;;;;5010504;28;20468;-67
2022/07/25 09:40:10;;;;;;;10.07;9.30;;;47.90;25.90;;;;;;5007266;28;20450;-67
2022/07/25 09:42:36;;;;;;;11.30;10.60;;;47.60;25.50;;;;;;5004985;28;20205;-70
2022/07/25 09:45:13;;;;;;;11.83;11.13;;;47.60;26.00;;;;;;5007219;28;20442;-71
2022/07/25 09:48:02;;;;;;;10.57;9.87;;;47.50;26.40;;;;;;5003944;28;20466;-66
2022/07/25 09:50:30;;;;;;;11.57;10.57;;;47.20;26.10;;;;;;4999597;28;20793;-74
2022/07/25 09:53:00;;;;;;;11.00;10.17;;;47.70;26.00;;;;;;5006565;28;20523;-68
2022/07/25 09:55:27;;;;;;;10.53;9.73;;;48.50;25.50;;;;;;5005611;28;20433;-71
2022/07/25 09:57:53;;;;;;;10.53;9.93;;;49.00;25.90;;;;;;5003948;28;20465;-69
2022/07/25 10:00:22;;;;;;;12.30;11.50;;;48.50;25.20;;;;;;5008743;28;20783;-71
2022/07/25 10:02:51;;;;;;;11.10;10.37;;;48.80;25.60;;;;;;5006025;28;20225;-67
2022/07/25 10:05:39;;;;;;;12.20;11.20;;;47.10;25.80;;;;;;5005325;28;20526;-70
2022/07/25 10:08:07;;;;;;;12.30;11.30;;;46.40;25.80;;;;;;5000292;28;21018;-70
2022/07/25 10:10:38;;;;;;;10.60;10.00;;;46.30;26.80;;;;;;5009305;28;20437;-70
2022/07/25 10:13:15;;;;;;;10.97;10.13;;;47.00;26.40;;;;;;5016967;28;20977;-72
2022/07/25 10:15:48;;;;;;;10.90;10.20;;;47.90;25.90;;;;;;5003788;28;20528;-66
2022/07/25 10:18:15;;;;;;;10.10;9.50;;;48.10;25.30;;;;;;5005857;28;20495;-66
2022/07/25 10:20:43;;;;;;;11.20;10.40;;;46.90;26.10;;;;;;5004508;28;20437;-66
2022/07/25 10:23:26;;;;;;;11.13;10.43;;;45.40;27.20;;;;;;5009716;28;20445;-66
2022/07/25 10:26:12;;;;;;;12.20;11.03;;;44.30;28.40;;;;;;5024516;28;20475;-66
2022/07/25 10:28:42;;;;;;;10.33;9.63;;;43.10;29.50;;;;;;5009260;28;20480;-65
2022/07/25 10:31:32;;;;;;;11.17;10.37;;;41.80;30.60;;;;;;5008769;28;20591;-65
2022/07/25 10:34:01;;;;;;;8.90;8.30;;;40.30;32.20;;;;;;5009368;28;20483;-65
2022/07/25 10:36:50;;;;;;;10.30;9.60;;;39.40;33.10;;;;;;4998959;28;20450;-65
2022/07/25 10:39:18;;;;;;;11.00;10.20;;;38.60;34.60;;;;;;5008936;28;20934;-65
2022/07/25 10:41:53;;;;;;;12.57;11.60;;;38.20;35.40;;;;;;5008608;28;20488;-65
2022/07/25 10:44:19;;;;;;;10.17;9.23;;;37.90;35.80;;;;;;5011688;28;20452;-65
2022/07/25 10:46:45;;;;;;;11.60;10.63;;;37.50;35.70;;;;;;5009570;28;20473;-65
2022/07/25 10:49:26;;;;;;;10.43;9.57;;;37.40;36.10;;;;;;5008739;28;20484;-65
2022/07/25 10:51:57;;;;;;;10.83;9.70;;;36.90;36.20;;;;;;5008333;28;20452;-65
2022/07/25 10:54:22;;;;;;;10.30;9.40;;;36.60;36.70;;;;;;5009262;28;20440;-65
2022/07/25 10:56:56;;;;;;;11.50;10.50;;;36.70;37.70;;;;;;5008582;28;20970;-65
2022/07/25 10:59:31;;;;;;;10.47;9.77;;;36.70;38.00;;;;;;5007463;28;20536;-65
2022/07/25 11:01:57;;;;;;;10.33;9.43;;;37.20;38.50;;;;;;5014832;28;20998;-69
2022/07/25 11:04:23;;;;;;;11.40;10.50;;;37.30;37.60;;;;;;5022350;28;20430;-69
2022/07/25 11:06:49;;;;;;;11.97;10.97;;;37.60;37.30;;;;;;5005654;28;21033;-69
2022/07/25 11:09:14;;;;;;;12.73;11.70;;;38.70;36.10;;;;;;5009649;28;20186;-70
2022/07/25 11:11:46;;;;;;;11.03;10.23;;;40.00;34.20;;;;;;5012469;28;20187;-70
2022/07/25 11:14:21;;;;;;;10.10;9.20;;;40.00;33.10;;;;;;5004391;28;20774;-67
2022/07/25 11:16:49;;;;;;;11.00;10.13;;;39.50;33.20;;;;;;5007340;28;20461;-68
2022/07/25 11:19:25;;;;;;;10.20;9.40;;;40.00;33.20;;;;;;5006110;28;20471;-69
2022/07/25 11:21:54;;;;;;;10.33;9.63;;;41.70;31.70;;;;;;5005429;28;20437;-66
2022/07/25 11:24:21;;;;;;;9.97;9.20;;;43.30;30.00;;;;;;5021169;28;20441;-67
2022/07/25 11:26:49;;;;;;;9.53;8.90;;;44.50;28.80;;;;;;5021225;28;20457;-65
2022/07/25 11:29:25;;;;;;;10.53;9.60;;;45.50;27.60;;;;;;5003176;28;20960;-66
2022/07/25 11:32:00;;;;;;;9.83;9.23;;;45.70;27.40;;;;;;5006511;28;20489;-64
2022/07/25 11:34:32;;;;;;;9.37;8.77;;;45.60;26.30;;;;;;5008178;28;20453;-69
2022/07/25 11:37:00;;;;;;;10.50;9.80;;;44.80;26.60;;;;;;5003386;28;20549;-67
2022/07/25 11:39:27;;;;;;;9.53;8.93;;;45.30;27.50;;;;;;5020906;28;21001;-67
2022/07/25 11:42:04;;;;;;;8.83;8.23;;;44.90;26.90;;;;;;5003237;28;20445;-64
2022/07/25 11:44:32;;;;;;;8.33;7.73;;;43.50;28.00;;;;;;5002319;28;20533;-68
2022/07/25 11:46:58;;;;;;;8.70;8.20;;;42.40;28.10;;;;;;5021609;28;20547;-63
2022/07/25 11:49:23;;;;;;;8.47;7.87;;;42.30;28.90;;;;;;5005826;28;20985;-63
2022/07/25 11:51:49;;;;;;;8.73;8.13;;;41.90;28.90;;;;;;5007130;28;20648;-63
2022/07/25 11:54:15;;;;;;;8.37;7.87;;;42.00;28.90;;;;;;5007700;28;20253;-65
2022/07/25 11:56:42;;;;;;;7.50;7.00;;;41.50;29.10;;;;;;5004584;28;20203;-64
2022/07/25 11:59:08;;;;;;;7.17;6.67;;;41.60;28.90;;;;;;5006916;28;20499;-71
2022/07/25 12:01:39;;;;;;;7.20;6.70;;;41.40;28.40;;;;;;5021719;28;20540;-70
2022/07/25 12:04:07;;;;;;;6.77;6.27;;;40.80;28.40;;;;;;5011487;28;20437;-72
2022/07/25 12:06:33;;;;;;;6.03;5.63;;;40.10;28.60;;;;;;5008903;28;20483;-73
2022/07/25 12:09:12;;;;;;;5.07;4.77;;;39.70;29.00;;;;;;5027440;28;20536;-71
2022/07/25 12:11:38;;;;;;;5.60;5.20;;;39.30;29.10;;;;;;5013084;28;20656;-71
2022/07/25 12:14:05;;;;;;;6.20;5.60;;;39.00;29.20;;;;;;5011756;28;20450;-70
2022/07/25 12:16:31;;;;;;;5.53;5.20;;;38.60;29.70;;;;;;5009352;28;20215;-70
2022/07/25 12:18:57;;;;;;;6.27;5.77;;;38.40;29.90;;;;;;5011906;28;20507;-71
2022/07/25 12:21:23;;;;;;;5.73;5.33;;;38.40;30.20;;;;;;5010053;28;20458;-69
2022/07/25 12:23:48;;;;;;;6.67;6.17;;;38.30;30.10;;;;;;5009044;28;20511;-74
2022/07/25 12:26:14;;;;;;;5.70;5.20;;;38.10;30.50;;;;;;5011898;28;20716;-72
2022/07/25 12:28:40;;;;;;;7.47;6.97;;;38.00;30.70;;;;;;5008699;28;20721;-72
2022/07/25 12:31:05;;;;;;;7.43;6.93;;;38.00;31.80;;;;;;5009802;28;20679;-75
2022/07/25 12:33:31;;;;;;;9.93;9.10;;;38.00;33.00;;;;;;5011642;28;20265;-69